Ozgur Aksoy — 9HA2587 — position and weather

sailwx.info

Track history (hours):
 
Tides and Currents Weather Stations Pressure Air Temp Water Temp Dewpoint Dewpoint Depression Visibility Wind Speed Wind Dir Waves Ship Positions

Ozgur Aksoy

Last reported at 2015-Mar-16 11:12 UTC. Time now 2015-Apr-01 03:09 UTC.
Position N 53°39' W 011°25'.
Warning: this ship's position is 15 days out of date.

Length 196 m; draft 11.4 m.

Type: Cargo ship. MMSI: 248950000.

Date/timePositionNaut miles runAvg speedWind from/ knotsBaromVisibWave heightAir tempDewpointWater temp
2015-Mar-16 11:12N 53°39' W 011°25'711.2
2015-Mar-16 10:33N 53°43' W 011°15'1111.2
2015-Mar-16 09:33N 53°50' W 010°60'1111.3
2015-Mar-16 08:33N 53°57' W 010°44'1110.7
2015-Mar-16 07:33N 54°06' W 010°36'1111.3
2015-Mar-16 06:34N 54°17' W 010°32'1111.0
2015-Mar-16 05:33N 54°28' W 010°28'1210.8
2015-Mar-16 04:28N 54°39' W 010°22'1010.7
2015-Mar-16 03:32N 54°48' W 010°16'1010.6
2015-Mar-16 02:32N 54°58' W 010°10'  
2015-Mar-11 22:26N 63°49' E 007°35'  
Track history (hours):
 
Tides and Currents Weather Stations Pressure Air Temp Water Temp Dewpoint Dewpoint Depression Visibility Wind Speed Wind Dir Waves Ship Positions

Ozgur Aksoy

Last reported at 2015-Mar-16 11:12 UTC. Time now 2015-Apr-01 03:09 UTC.
Position N 53°39' W 011°25'.
Warning: this ship's position is 15 days out of date.

Length 196 m; draft 11.4 m.

Type: Cargo ship. MMSI: 248950000.

Date/timePositionNaut miles runAvg speedWind from/ knotsBaromVisibWave heightAir tempDewpointWater temp
2015-Mar-16 11:12N 53°39' W 011°25'711.2
2015-Mar-16 10:33N 53°43' W 011°15'1111.2
2015-Mar-16 09:33N 53°50' W 010°60'1111.3
2015-Mar-16 08:33N 53°57' W 010°44'1110.7
2015-Mar-16 07:33N 54°06' W 010°36'1111.3
2015-Mar-16 06:34N 54°17' W 010°32'1111.0
2015-Mar-16 05:33N 54°28' W 010°28'1210.8
2015-Mar-16 04:28N 54°39' W 010°22'1010.7
2015-Mar-16 03:32N 54°48' W 010°16'1010.6
2015-Mar-16 02:32N 54°58' W 010°10'  
2015-Mar-11 22:26N 63°49' E 007°35'  

Dump ship's entire track history